createdAt,value
2017-11-07T00:01:51.287Z,76.60
2017-11-07T00:04:18.835Z,73.77
2017-11-07T00:06:46.327Z,90.47
2017-11-07T00:09:13.820Z,68.30
2017-11-07T00:11:41.336Z,63.43
2017-11-07T00:14:08.835Z,52.57
2017-11-07T00:16:36.361Z,57.23
2017-11-07T00:19:03.905Z,48.67
2017-11-07T00:21:31.473Z,44.90
2017-11-07T00:23:58.989Z,54.27
2017-11-07T00:26:26.481Z,64.47
2017-11-07T00:28:54.022Z,102.50
2017-11-07T00:31:21.510Z,54.73
2017-11-07T00:33:49.005Z,52.23
2017-11-07T00:36:16.526Z,114.17
2017-11-07T00:38:44.013Z,62.03
2017-11-07T00:41:11.508Z,106.70
2017-11-07T00:43:39.020Z,44.90
2017-11-07T00:46:06.516Z,52.33
2017-11-07T00:48:34.162Z,91.87
2017-11-07T00:51:01.655Z,80.17
2017-11-07T00:53:29.220Z,100.77
2017-11-07T00:55:56.731Z,58.40
2017-11-07T00:58:24.332Z,61.53
2017-11-07T01:00:51.819Z,88.37
2017-11-07T01:03:19.319Z,82.13
2017-11-07T01:05:47.015Z,123.03
2017-11-07T01:08:14.577Z,76.83
2017-11-07T01:10:42.077Z,106.57
2017-11-07T01:13:09.796Z,68.13
2017-11-07T01:15:37.373Z,82.90
2017-11-07T01:18:04.868Z,65.50
2017-11-07T01:20:32.410Z,76.27
2017-11-07T01:22:59.898Z,84.10
2017-11-07T01:25:27.389Z,91.50
2017-11-07T01:27:55.088Z,124.63
2017-11-07T01:30:22.608Z,53.30
2017-11-07T01:32:50.094Z,84.63
2017-11-07T01:35:17.634Z,46.60
2017-11-07T01:37:45.200Z,61.63
2017-11-07T01:40:12.697Z,102.73
2017-11-07T01:42:40.240Z,107.53
2017-11-07T01:45:07.736Z,67.40
2017-11-07T01:47:35.311Z,65.70
2017-11-07T01:50:02.999Z,47.07
2017-11-07T01:52:30.491Z,69.30
2017-11-07T01:54:57.996Z,58.13
2017-11-07T01:57:25.512Z,41.17
2017-11-07T01:59:52.995Z,41.27
2017-11-07T02:02:20.577Z,38.23
2017-11-07T02:04:48.103Z,105.73
2017-11-07T02:07:15.602Z,42.90
2017-11-07T02:09:43.093Z,50.93
2017-11-07T02:12:10.708Z,51.03
2017-11-07T02:14:38.199Z,47.73
2017-11-07T02:17:05.730Z,77.07
2017-11-07T02:19:33.489Z,40.10
2017-11-07T02:22:01.043Z,55.40
2017-11-07T02:24:28.535Z,36.80
2017-11-07T02:26:56.081Z,33.87
2017-11-07T02:29:23.599Z,39.20
2017-11-07T02:31:51.084Z,49.43
2017-11-07T02:34:18.580Z,41.87
2017-11-07T02:36:46.395Z,67.47
2017-11-07T02:39:13.893Z,62.00
2017-11-07T02:41:41.423Z,49.27
2017-11-07T02:44:08.980Z,99.23
2017-11-07T02:46:36.469Z,38.90
2017-11-07T02:49:04.100Z,69.20
2017-11-07T02:51:31.597Z,29.40
2017-11-07T02:53:59.088Z,25.77
2017-11-07T02:56:26.600Z,43.40
2017-11-07T02:58:54.088Z,29.03
2017-11-07T03:01:21.709Z,27.00
2017-11-07T03:03:49.205Z,47.10
2017-11-07T03:06:16.686Z,24.60
2017-11-07T03:08:44.206Z,28.80
2017-11-07T03:11:11.696Z,32.73
2017-11-07T03:13:39.284Z,31.77
2017-11-07T03:16:06.772Z,32.80
2017-11-07T03:18:34.265Z,34.83
2017-11-07T03:21:01.797Z,26.30
2017-11-07T03:23:29.279Z,32.20
2017-11-07T03:25:56.772Z,33.90
2017-11-07T03:28:24.431Z,35.30
2017-11-07T03:30:51.923Z,28.97
2017-11-07T03:33:19.419Z,37.93
2017-11-07T03:35:46.944Z,34.27
2017-11-07T03:38:14.434Z,28.90
2017-11-07T03:40:41.929Z,28.60
2017-11-07T03:43:09.484Z,29.03
2017-11-07T03:45:36.978Z,35.13
2017-11-07T03:48:04.465Z,32.00
2017-11-07T03:50:32.002Z,29.13
2017-11-07T03:52:59.492Z,34.30
2017-11-07T03:55:26.976Z,30.13
2017-11-07T03:57:54.528Z,30.70
2017-11-07T04:00:22.088Z,34.03
2017-11-07T04:02:49.598Z,31.03
2017-11-07T04:05:17.132Z,30.43
2017-11-07T04:07:44.628Z,33.20
2017-11-07T04:10:12.225Z,27.47
2017-11-07T04:12:39.786Z,26.17
2017-11-07T04:15:07.347Z,23.93
2017-11-07T04:17:34.895Z,24.90
2017-11-07T04:20:02.556Z,24.47
2017-11-07T04:22:30.119Z,26.10
2017-11-07T04:24:57.684Z,19.03
2017-11-07T04:27:25.224Z,27.93
2017-11-07T04:29:52.810Z,27.13
2017-11-07T04:32:20.414Z,28.93
2017-11-07T04:34:47.954Z,25.93
2017-11-07T04:37:15.448Z,30.27
2017-11-07T04:39:42.963Z,34.60
2017-11-07T04:42:10.591Z,23.77
2017-11-07T04:44:38.256Z,22.97
2017-11-07T04:47:05.747Z,23.87
2017-11-07T04:49:33.266Z,24.97
2017-11-07T04:52:00.828Z,25.87
2017-11-07T04:54:28.323Z,25.63
2017-11-07T04:56:55.855Z,24.30
2017-11-07T04:59:23.343Z,18.53
2017-11-07T05:01:51.408Z,18.90
2017-11-07T05:04:18.921Z,17.73
2017-11-07T05:06:46.461Z,18.37
2017-11-07T05:09:14.053Z,19.77
2017-11-07T05:11:41.539Z,20.50
2017-11-07T05:14:09.057Z,24.30
2017-11-07T05:16:36.552Z,20.07
2017-11-07T05:19:04.045Z,21.53
2017-11-07T05:21:31.604Z,19.57
2017-11-07T05:23:59.123Z,18.70
2017-11-07T05:26:26.659Z,21.43
2017-11-07T05:28:54.241Z,18.13
2017-11-07T05:31:21.784Z,16.63
2017-11-07T05:33:49.344Z,17.00
2017-11-07T05:36:16.865Z,22.40
2017-11-07T05:38:44.362Z,16.80
2017-11-07T05:41:11.905Z,16.73
2017-11-07T05:43:39.455Z,16.97
2017-11-07T05:46:06.951Z,16.23
2017-11-07T05:48:34.489Z,22.93
2017-11-07T05:51:01.980Z,21.00
2017-11-07T05:53:29.511Z,24.63
2017-11-07T05:55:57.071Z,15.40
2017-11-07T05:58:24.628Z,20.00
2017-11-07T06:00:52.184Z,17.13
2017-11-07T06:03:19.749Z,17.63
2017-11-07T06:05:47.309Z,15.20
2017-11-07T06:08:14.822Z,18.30
2017-11-07T06:10:42.327Z,12.07
2017-11-07T06:13:09.846Z,39.37
2017-11-07T06:15:37.373Z,30.63
2017-11-07T06:18:04.855Z,18.77
2017-11-07T06:20:32.359Z,17.73
2017-11-07T06:23:00.141Z,29.07
2017-11-07T06:25:27.672Z,24.17
2017-11-07T06:27:55.236Z,19.97
2017-11-07T06:30:22.771Z,43.20
2017-11-07T06:32:50.257Z,22.30
2017-11-07T06:35:17.750Z,17.90
2017-11-07T06:37:45.276Z,17.80
2017-11-07T06:40:12.760Z,20.83
2017-11-07T06:42:40.243Z,14.67
2017-11-07T06:45:07.948Z,15.40
2017-11-07T06:47:35.507Z,16.03
2017-11-07T06:50:02.993Z,18.97
2017-11-07T06:52:30.730Z,21.27
2017-11-07T06:54:58.289Z,17.93
2017-11-07T06:57:25.852Z,21.53
2017-11-07T06:59:53.514Z,15.27
2017-11-07T07:02:20.999Z,13.93
2017-11-07T07:04:48.478Z,16.30
2017-11-07T07:07:16.019Z,15.47
2017-11-07T07:09:43.510Z,24.90
2017-11-07T07:12:11.002Z,16.60
2017-11-07T07:14:38.553Z,14.57
2017-11-07T07:17:06.045Z,19.00
2017-11-07T07:19:33.526Z,22.40
2017-11-07T07:22:01.050Z,21.43
2017-11-07T07:24:28.537Z,22.60
2017-11-07T07:26:56.149Z,20.67
2017-11-07T07:29:23.682Z,18.27
2017-11-07T07:31:51.170Z,18.60
2017-11-07T07:34:18.669Z,12.20
2017-11-07T07:36:46.190Z,16.80
2017-11-07T07:39:13.686Z,32.63
2017-11-07T07:41:41.201Z,20.80
2017-11-07T07:44:08.744Z,13.63
2017-11-07T07:46:36.221Z,20.83
2017-11-07T07:49:03.702Z,17.17
2017-11-07T07:51:31.342Z,17.60
2017-11-07T07:53:58.828Z,10.40
2017-11-07T07:56:26.315Z,14.87
2017-11-07T07:58:53.856Z,18.07
2017-11-07T08:01:21.335Z,20.80
2017-11-07T08:03:48.864Z,17.63
2017-11-07T08:06:16.593Z,17.53
2017-11-07T08:08:44.086Z,24.10
2017-11-07T08:11:11.609Z,15.07
2017-11-07T08:13:39.131Z,16.03
2017-11-07T08:16:06.627Z,13.37
2017-11-07T08:18:34.172Z,14.17
2017-11-07T08:21:01.730Z,11.80
2017-11-07T08:23:29.219Z,13.23
2017-11-07T08:25:56.778Z,19.50
2017-11-07T08:28:24.296Z,16.13
2017-11-07T08:30:51.787Z,12.87
2017-11-07T08:33:19.314Z,14.07
2017-11-07T08:35:46.826Z,19.17
2017-11-07T08:38:14.313Z,16.10
2017-11-07T08:40:41.823Z,16.10
2017-11-07T08:43:09.365Z,10.67
2017-11-07T08:45:36.916Z,11.73
2017-11-07T08:48:04.400Z,16.53
2017-11-07T08:50:31.936Z,10.20
2017-11-07T08:52:59.504Z,16.43
2017-11-07T08:55:26.993Z,10.87
2017-11-07T08:57:54.521Z,14.50
2017-11-07T09:00:22.013Z,10.10
2017-11-07T09:02:49.555Z,17.10
2017-11-07T09:05:17.142Z,19.97
2017-11-07T09:07:44.621Z,12.10
2017-11-07T09:10:14.476Z,13.23
2017-11-07T09:12:42.004Z,12.23
2017-11-07T09:15:09.486Z,7.80
2017-11-07T09:17:36.974Z,13.93
2017-11-07T09:20:04.596Z,13.17
2017-11-07T09:22:32.136Z,14.03
2017-11-07T09:24:59.633Z,10.70
2017-11-07T09:27:27.126Z,15.20
2017-11-07T09:29:54.660Z,10.00
2017-11-07T09:32:22.139Z,12.77
2017-11-07T09:34:49.622Z,16.60
2017-11-07T09:37:17.148Z,14.83
2017-11-07T09:39:44.655Z,8.67
2017-11-07T09:42:12.139Z,14.63
2017-11-07T09:44:39.660Z,8.87
2017-11-07T09:47:07.205Z,11.20
2017-11-07T09:49:34.695Z,18.13
2017-11-07T09:52:02.255Z,28.50
2017-11-07T09:54:29.744Z,20.13
2017-11-07T09:56:57.291Z,9.83
2017-11-07T09:59:24.828Z,12.50
2017-11-07T10:01:52.322Z,19.30
2017-11-07T10:04:19.819Z,13.90
2017-11-07T10:06:47.352Z,12.53
2017-11-07T10:09:14.831Z,16.40
2017-11-07T10:11:42.311Z,7.90
2017-11-07T10:14:09.846Z,11.63
2017-11-07T10:16:37.334Z,14.80
2017-11-07T10:19:04.898Z,11.10
2017-11-07T10:21:32.554Z,14.30
2017-11-07T10:24:00.070Z,11.03
2017-11-07T10:26:27.560Z,26.90
2017-11-07T10:28:55.112Z,14.73
2017-11-07T10:31:22.601Z,13.87
2017-11-07T10:33:50.142Z,8.70
2017-11-07T10:36:17.659Z,22.37
2017-11-07T10:38:45.140Z,14.20
2017-11-07T10:41:12.630Z,16.80
2017-11-07T10:43:40.141Z,13.47
2017-11-07T10:46:07.626Z,7.67
2017-11-07T10:48:35.291Z,8.90
2017-11-07T10:51:02.769Z,8.93
2017-11-07T10:53:30.249Z,19.37
2017-11-07T10:55:57.783Z,16.17
2017-11-07T10:58:25.332Z,19.30
2017-11-07T11:00:52.811Z,34.10
2017-11-07T11:03:20.319Z,9.80
2017-11-07T11:05:47.818Z,19.63
2017-11-07T11:08:15.295Z,9.67
2017-11-07T11:10:42.824Z,14.27
2017-11-07T11:13:10.312Z,14.90
2017-11-07T11:15:37.802Z,11.20
2017-11-07T11:18:05.326Z,13.23
2017-11-07T11:20:32.807Z,13.40
2017-11-07T11:23:00.311Z,12.40
2017-11-07T11:25:27.824Z,10.90
2017-11-07T11:27:55.313Z,22.67
2017-11-07T11:30:22.802Z,14.77
2017-11-07T11:32:50.347Z,10.17
2017-11-07T11:35:17.834Z,10.93
2017-11-07T11:37:45.321Z,17.13
2017-11-07T11:40:12.852Z,15.53
2017-11-07T11:42:40.340Z,17.63
2017-11-07T11:45:07.844Z,12.00
2017-11-07T11:47:35.361Z,9.93
2017-11-07T11:50:02.849Z,12.73
2017-11-07T11:52:30.427Z,12.40
2017-11-07T11:54:57.931Z,37.17
2017-11-07T11:57:25.728Z,9.90
2017-11-07T11:59:53.208Z,7.63
2017-11-07T12:02:20.747Z,16.63
2017-11-07T12:04:48.308Z,12.57
2017-11-07T12:07:15.793Z,25.40
2017-11-07T12:09:43.280Z,10.67
2017-11-07T12:12:10.813Z,16.23
2017-11-07T12:14:38.398Z,9.83
2017-11-07T12:17:05.889Z,10.73
2017-11-07T12:19:33.429Z,9.83
2017-11-07T12:22:00.915Z,13.50
2017-11-07T12:24:28.495Z,20.10
2017-11-07T12:26:56.019Z,11.53
2017-11-07T12:29:23.588Z,14.13
2017-11-07T12:31:51.969Z,14.73
2017-11-07T12:34:19.520Z,7.17
2017-11-07T12:36:47.091Z,16.63
2017-11-07T12:39:14.580Z,13.97
2017-11-07T12:41:42.104Z,10.20
2017-11-07T12:44:09.589Z,11.70
2017-11-07T12:46:37.072Z,9.40
2017-11-07T12:49:04.579Z,9.33
2017-11-07T12:54:28.872Z,8.13
2017-11-07T12:56:56.440Z,11.23
2017-11-07T12:59:23.932Z,8.53
2017-11-07T13:01:51.461Z,12.20
2017-11-07T13:04:18.953Z,12.50
2017-11-07T13:06:46.444Z,10.67
2017-11-07T13:09:13.970Z,7.10
2017-11-07T13:11:41.459Z,12.50
2017-11-07T13:14:08.947Z,5.80
2017-11-07T13:16:36.448Z,15.67
2017-11-07T13:19:04.167Z,13.00
2017-11-07T13:21:31.723Z,10.70
2017-11-07T13:23:59.297Z,9.73
2017-11-07T13:26:26.820Z,15.43
2017-11-07T13:28:54.305Z,9.57
2017-11-07T13:31:21.784Z,7.47
2017-11-07T13:33:49.319Z,17.57
2017-11-07T13:36:16.797Z,6.73
2017-11-07T13:38:44.275Z,12.13
2017-11-07T13:41:11.812Z,13.90
2017-11-07T13:43:39.297Z,11.90
2017-11-07T13:46:06.780Z,11.30
2017-11-07T13:48:34.310Z,14.60
2017-11-07T13:51:01.803Z,12.53
2017-11-07T13:53:29.367Z,21.10
2017-11-07T13:55:56.909Z,24.87
2017-11-07T13:58:24.492Z,17.53
2017-11-07T14:00:52.057Z,14.90
2017-11-07T14:03:19.576Z,7.50
2017-11-07T14:05:47.058Z,14.47
2017-11-07T14:08:14.640Z,12.97
2017-11-07T14:10:42.191Z,16.90
2017-11-07T14:13:09.730Z,13.07
2017-11-07T14:15:37.256Z,16.07
2017-11-07T14:18:04.738Z,13.50
2017-11-07T14:20:32.221Z,25.03
2017-11-07T14:22:59.733Z,11.43
2017-11-07T14:25:27.265Z,10.73
2017-11-07T14:27:54.809Z,16.80
2017-11-07T14:30:22.311Z,14.80
2017-11-07T14:32:49.798Z,16.90
2017-11-07T14:35:17.320Z,19.10
2017-11-07T14:37:44.813Z,19.03
2017-11-07T14:40:12.296Z,19.03
2017-11-07T14:42:39.871Z,12.33
2017-11-07T14:45:07.360Z,11.20
2017-11-07T14:47:34.863Z,13.43
2017-11-07T14:50:02.522Z,7.87
2017-11-07T14:52:30.091Z,11.03
2017-11-07T14:54:57.664Z,14.20
2017-11-07T14:57:25.173Z,15.40
2017-11-07T14:59:52.683Z,11.90
2017-11-07T15:02:20.243Z,14.90
2017-11-07T15:04:47.716Z,9.60
2017-11-07T15:07:15.442Z,19.63
2017-11-07T15:09:42.929Z,10.70
2017-11-07T15:12:10.416Z,7.03
2017-11-07T15:14:38.104Z,12.20
2017-11-07T15:17:05.600Z,16.63
2017-11-07T15:19:33.102Z,13.93
2017-11-07T15:22:00.614Z,12.03
2017-11-07T15:24:28.119Z,10.60
2017-11-07T15:26:55.597Z,9.10
2017-11-07T15:29:23.106Z,8.90
2017-11-07T15:31:50.650Z,12.20
2017-11-07T15:34:18.187Z,17.07
2017-11-07T15:36:45.746Z,6.43
2017-11-07T15:39:13.230Z,9.20
2017-11-07T15:41:40.965Z,14.77
2017-11-07T15:44:08.445Z,4.27
2017-11-07T15:46:35.989Z,13.70
2017-11-07T15:49:03.516Z,19.90
2017-11-07T15:51:30.996Z,6.37
2017-11-07T15:53:58.478Z,23.93
2017-11-07T15:56:26.006Z,20.97
2017-11-07T15:58:53.493Z,11.30
2017-11-07T16:01:20.978Z,8.30
2017-11-07T16:03:48.708Z,6.60
2017-11-07T16:06:16.255Z,22.53
2017-11-07T16:08:43.812Z,11.67
2017-11-07T16:11:11.319Z,9.60
2017-11-07T16:13:38.796Z,8.87
2017-11-07T16:16:06.393Z,6.87
2017-11-07T16:18:34.044Z,12.07
2017-11-07T16:21:01.527Z,10.03
2017-11-07T16:23:29.019Z,17.97
2017-11-07T16:25:56.629Z,12.63
2017-11-07T16:28:24.119Z,22.87
2017-11-07T16:30:51.637Z,9.43
2017-11-07T16:33:19.344Z,8.43
2017-11-07T16:35:46.865Z,12.57
2017-11-07T16:38:14.355Z,14.03
2017-11-07T16:40:41.869Z,13.13
2017-11-07T16:43:09.354Z,6.47
2017-11-07T16:45:36.831Z,7.80
2017-11-07T16:48:04.355Z,9.43
2017-11-07T16:50:31.915Z,21.13
2017-11-07T16:52:59.431Z,15.70
2017-11-07T16:55:26.914Z,22.33
2017-11-07T16:57:54.387Z,11.60
2017-11-07T17:00:21.902Z,17.87
2017-11-07T17:02:49.388Z,10.90
2017-11-07T17:05:16.875Z,23.50
2017-11-07T17:07:44.409Z,13.17
2017-11-07T17:10:11.903Z,16.67
2017-11-07T17:12:39.443Z,16.67
2017-11-07T17:15:07.100Z,20.77
2017-11-07T17:17:34.659Z,17.97
2017-11-07T17:20:02.150Z,26.03
2017-11-07T17:22:29.775Z,19.20
2017-11-07T17:24:57.276Z,30.07
2017-11-07T17:27:24.764Z,32.00
2017-11-07T17:29:52.287Z,21.63
2017-11-07T17:32:19.778Z,21.60
2017-11-07T17:34:47.269Z,16.83
2017-11-07T17:37:14.928Z,12.70
2017-11-07T17:39:42.412Z,14.30
2017-11-07T17:42:09.906Z,25.73
2017-11-07T17:44:37.495Z,16.40
2017-11-07T17:47:04.983Z,15.83
2017-11-07T17:49:32.527Z,23.43
2017-11-07T17:52:00.077Z,17.90
2017-11-07T17:54:27.656Z,19.73
2017-11-07T17:56:55.196Z,21.40
2017-11-07T17:59:22.755Z,43.37
2017-11-07T18:01:50.563Z,22.37
2017-11-07T18:04:18.060Z,29.50
2017-11-07T18:06:45.591Z,27.73
2017-11-07T18:09:13.077Z,21.87
2017-11-07T18:11:40.559Z,17.07
2017-11-07T18:14:08.132Z,18.23
2017-11-07T18:16:35.614Z,31.43
2017-11-07T18:19:03.106Z,25.47
2017-11-07T18:21:30.660Z,20.97
2017-11-07T18:23:58.245Z,26.93
2017-11-07T18:26:25.733Z,23.87
2017-11-07T18:28:53.292Z,20.40
2017-11-07T18:31:20.791Z,33.10
2017-11-07T18:33:48.290Z,24.10
2017-11-07T18:36:15.837Z,30.17
2017-11-07T18:38:43.332Z,30.47
2017-11-07T18:41:10.823Z,32.47
2017-11-07T18:43:38.513Z,27.90
2017-11-07T18:46:06.016Z,37.10
2017-11-07T18:48:33.502Z,36.67
2017-11-07T18:51:01.020Z,32.67
2017-11-07T18:53:28.550Z,37.73
2017-11-07T18:55:56.084Z,38.40
2017-11-07T18:58:23.573Z,43.17
2017-11-07T19:00:51.057Z,40.23
2017-11-07T19:03:18.688Z,34.73
2017-11-07T19:05:46.196Z,48.37
2017-11-07T19:08:13.684Z,38.53
2017-11-07T19:10:41.225Z,35.07
2017-11-07T19:13:08.741Z,40.27
2017-11-07T19:15:36.225Z,44.30
2017-11-07T19:18:03.757Z,57.50
2017-11-07T19:20:31.248Z,42.00
2017-11-07T19:22:58.741Z,37.10
2017-11-07T19:25:26.319Z,36.37
2017-11-07T19:27:53.817Z,46.70
2017-11-07T19:30:21.303Z,56.00
2017-11-07T19:32:48.834Z,50.27
2017-11-07T19:35:16.592Z,46.60
2017-11-07T19:37:44.099Z,68.67
2017-11-07T19:40:11.669Z,98.03
2017-11-07T19:42:39.228Z,51.70
2017-11-07T19:45:06.884Z,56.63
2017-11-07T19:47:34.377Z,42.40
2017-11-07T19:50:01.907Z,52.03
2017-11-07T19:52:29.424Z,56.57
2017-11-07T19:54:57.020Z,52.80
2017-11-07T19:57:24.556Z,54.37
2017-11-07T19:59:52.054Z,80.63
2017-11-07T20:02:19.559Z,66.00
2017-11-07T20:04:47.160Z,63.10
2017-11-07T20:07:14.651Z,48.30
2017-11-07T20:09:42.132Z,58.57
2017-11-07T20:12:09.670Z,53.07
2017-11-07T20:14:37.168Z,82.30
2017-11-07T20:17:04.665Z,69.13
2017-11-07T20:19:32.312Z,52.53
2017-11-07T20:21:59.800Z,51.53
2017-11-07T20:24:27.301Z,78.73
2017-11-07T20:26:54.904Z,86.13
2017-11-07T20:29:22.433Z,79.20
2017-11-07T20:31:49.934Z,87.33
2017-11-07T20:34:17.484Z,61.20
2017-11-07T20:36:45.021Z,62.83
2017-11-07T20:39:12.519Z,59.03
2017-11-07T20:41:40.037Z,63.93
2017-11-07T20:44:07.609Z,69.43
2017-11-07T20:46:35.105Z,84.00
2017-11-07T20:49:02.622Z,75.00
2017-11-07T20:51:30.116Z,75.70
2017-11-07T20:53:57.646Z,71.50
2017-11-07T20:56:25.184Z,71.70
2017-11-07T20:58:52.752Z,66.33
2017-11-07T21:01:20.248Z,79.57
2017-11-07T21:03:47.989Z,80.83
2017-11-07T21:06:15.476Z,84.87
2017-11-07T21:08:42.973Z,100.50
2017-11-07T21:11:10.543Z,83.63
2017-11-07T21:13:38.104Z,97.77
2017-11-07T21:16:05.611Z,127.07
2017-11-07T21:18:33.144Z,86.27
2017-11-07T21:21:00.706Z,74.63
2017-11-07T21:23:28.194Z,81.47
2017-11-07T21:25:55.903Z,100.17
2017-11-07T21:28:23.400Z,124.27
2017-11-07T21:30:50.883Z,84.13
2017-11-07T21:33:19.349Z,112.97
2017-11-07T21:35:46.844Z,78.93
2017-11-07T21:38:14.375Z,74.60
2017-11-07T21:40:41.864Z,83.60
2017-11-07T21:43:09.430Z,65.47
2017-11-07T21:45:36.991Z,77.30
2017-11-07T21:48:04.552Z,66.87
2017-11-07T21:50:32.047Z,82.03
2017-11-07T21:52:59.587Z,64.40
2017-11-07T21:55:27.075Z,74.67
2017-11-07T21:57:54.575Z,75.47
2017-11-07T22:00:22.140Z,106.93
2017-11-07T22:02:49.629Z,73.87
2017-11-07T22:05:17.121Z,110.33
2017-11-07T22:07:44.632Z,72.50
2017-11-07T22:10:17.203Z,78.43
2017-11-07T22:12:44.702Z,72.00
2017-11-07T22:15:12.200Z,92.07
2017-11-07T22:17:39.748Z,83.57
2017-11-07T22:20:08.026Z,67.57
2017-11-07T22:22:41.147Z,82.10
2017-11-07T22:25:08.641Z,103.03
2017-11-07T22:27:36.167Z,78.20
2017-11-07T22:30:03.700Z,93.60
2017-11-07T22:32:31.183Z,86.07
2017-11-07T22:34:58.705Z,66.30
2017-11-07T22:37:26.196Z,79.23
2017-11-07T22:39:53.688Z,76.67
2017-11-07T22:42:21.403Z,79.37
2017-11-07T22:44:48.912Z,74.43
2017-11-07T22:47:16.399Z,74.50
2017-11-07T22:49:43.911Z,96.77
2017-11-07T22:52:11.399Z,79.43
2017-11-07T22:54:38.954Z,92.23
2017-11-07T22:57:06.451Z,83.00
2017-11-07T22:59:33.935Z,93.40
2017-11-07T23:02:01.565Z,92.43
2017-11-07T23:04:30.864Z,94.83
2017-11-07T23:06:58.355Z,98.37
2017-11-07T23:09:25.874Z,73.27
2017-11-07T23:11:54.144Z,96.40
2017-11-07T23:14:21.632Z,84.43
2017-11-07T23:16:49.170Z,96.00
2017-11-07T23:19:16.692Z,98.97
2017-11-07T23:21:44.182Z,96.90
2017-11-07T23:24:11.856Z,89.20
2017-11-07T23:26:39.477Z,104.30
2017-11-07T23:29:07.102Z,98.20
2017-11-07T23:31:34.617Z,92.90
2017-11-07T23:34:02.188Z,105.07
2017-11-07T23:36:29.774Z,100.57
2017-11-07T23:38:57.441Z,110.93
2017-11-07T23:41:24.943Z,87.83
2017-11-07T23:43:52.423Z,95.67
2017-11-07T23:46:19.940Z,90.03
2017-11-07T23:48:47.430Z,100.77
2017-11-07T23:51:14.912Z,96.40
2017-11-07T23:53:42.457Z,94.57
2017-11-07T23:56:09.951Z,106.40
2017-11-07T23:58:37.436Z,93.83
